sensor_id;sensor_type;location;lat;lon;timestamp;pressure;altitude;pressure_sealevel;temperature;humidity
64453;BME280;50813;52.654;6.766;2023-04-23T00:01:07;100730.0;;;9.33;100.0
64453;BME280;50813;52.654;6.766;2023-04-23T00:06:01;100730.0;;;9.33;100.0
64453;BME280;50813;52.654;6.766;2023-04-23T00:07:40;100728.0;;;9.42;100.0
64453;BME280;50813;52.654;6.766;2023-04-23T00:09:18;100724.0;;;9.39;100.0
64453;BME280;50813;52.654;6.766;2023-04-23T00:10:57;100730.0;;;9.35;100.0
64453;BME280;50813;52.654;6.766;2023-04-23T00:14:12;100732.0;;;9.38;100.0
64453;BME280;50813;52.654;6.766;2023-04-23T00:15:48;100730.0;;;9.31;100.0
64453;BME280;50813;52.654;6.766;2023-04-23T00:17:25;100731.0;;;9.25;100.0
64453;BME280;50813;52.654;6.766;2023-04-23T00:20:39;100731.0;;;9.11;100.0
64453;BME280;50813;52.654;6.766;2023-04-23T00:22:15;100731.0;;;8.98;100.0
64453;BME280;50813;52.654;6.766;2023-04-23T00:23:52;100727.0;;;9.0;100.0
64453;BME280;50813;52.654;6.766;2023-04-23T00:27:04;100728.0;;;8.98;100.0
64453;BME280;50813;52.654;6.766;2023-04-23T00:28:41;100726.0;;;8.9;100.0
64453;BME280;50813;52.654;6.766;2023-04-23T00:30:17;100723.0;;;8.99;100.0
64453;BME280;50813;52.654;6.766;2023-04-23T00:31:53;100728.0;;;9.02;100.0
64453;BME280;50813;52.654;6.766;2023-04-23T00:35:07;100725.0;;;9.02;100.0
64453;BME280;50813;52.654;6.766;2023-04-23T00:36:44;100725.0;;;8.93;100.0
64453;BME280;50813;52.654;6.766;2023-04-23T00:38:20;100730.0;;;8.98;100.0
64453;BME280;50813;52.654;6.766;2023-04-23T00:41:33;100725.0;;;9.08;100.0
64453;BME280;50813;52.654;6.766;2023-04-23T00:43:09;100728.0;;;9.23;100.0
64453;BME280;50813;52.654;6.766;2023-04-23T00:44:45;100726.0;;;9.19;100.0
64453;BME280;50813;52.654;6.766;2023-04-23T00:48:01;100730.0;;;9.14;100.0
64453;BME280;50813;52.654;6.766;2023-04-23T00:49:38;100733.0;;;9.07;100.0
64453;BME280;50813;52.654;6.766;2023-04-23T00:51:15;100726.0;;;9.13;100.0
64453;BME280;50813;52.654;6.766;2023-04-23T00:52:52;100723.0;;;8.98;100.0
64453;BME280;50813;52.654;6.766;2023-04-23T00:56:06;100723.0;;;9.0;100.0
64453;BME280;50813;52.654;6.766;2023-04-23T00:57:43;100726.0;;;9.02;100.0
64453;BME280;50813;52.654;6.766;2023-04-23T00:59:20;100725.0;;;9.0;100.0
64453;BME280;50813;52.654;6.766;2023-04-23T01:02:35;100730.0;;;9.01;100.0
64453;BME280;50813;52.654;6.766;2023-04-23T01:04:13;100733.0;;;9.02;100.0
64453;BME280;50813;52.654;6.766;2023-04-23T01:05:51;100723.0;;;9.06;100.0
64453;BME280;50813;52.654;6.766;2023-04-23T01:07:28;100723.0;;;8.99;100.0
64453;BME280;50813;52.654;6.766;2023-04-23T01:10:44;100723.0;;;9.06;100.0
64453;BME280;50813;52.654;6.766;2023-04-23T01:12:21;100719.0;;;9.14;100.0
64453;BME280;50813;52.654;6.766;2023-04-23T01:13:58;100721.0;;;9.05;100.0
64453;BME280;50813;52.654;6.766;2023-04-23T01:17:10;100720.0;;;9.08;100.0
64453;BME280;50813;52.654;6.766;2023-04-23T01:18:47;100713.0;;;9.03;100.0
64453;BME280;50813;52.654;6.766;2023-04-23T01:20:24;100713.0;;;9.02;100.0
64453;BME280;50813;52.654;6.766;2023-04-23T01:22:01;100712.0;;;8.98;100.0
64453;BME280;50813;52.654;6.766;2023-04-23T01:25:15;100718.0;;;9.1;100.0
64453;BME280;50813;52.654;6.766;2023-04-23T01:26:51;100710.0;;;9.15;100.0
64453;BME280;50813;52.654;6.766;2023-04-23T01:28:29;100708.0;;;9.1;100.0
64453;BME280;50813;52.654;6.766;2023-04-23T01:31:43;100707.0;;;8.96;100.0
64453;BME280;50813;52.654;6.766;2023-04-23T01:33:19;100713.0;;;9.11;100.0
64453;BME280;50813;52.654;6.766;2023-04-23T01:34:56;100714.0;;;8.98;100.0
64453;BME280;50813;52.654;6.766;2023-04-23T01:38:13;100710.0;;;9.14;100.0
64453;BME280;50813;52.654;6.766;2023-04-23T01:39:49;100709.0;;;9.13;100.0
64453;BME280;50813;52.654;6.766;2023-04-23T01:41:26;100706.0;;;9.14;100.0
64453;BME280;50813;52.654;6.766;2023-04-23T01:43:03;100707.0;;;9.05;100.0
64453;BME280;50813;52.654;6.766;2023-04-23T01:46:20;100702.0;;;9.05;100.0
64453;BME280;50813;52.654;6.766;2023-04-23T01:47:57;100702.0;;;9.14;100.0
64453;BME280;50813;52.654;6.766;2023-04-23T01:49:34;100701.0;;;9.13;100.0
64453;BME280;50813;52.654;6.766;2023-04-23T01:52:46;100697.0;;;9.06;100.0
64453;BME280;50813;52.654;6.766;2023-04-23T01:54:22;100701.0;;;9.14;100.0
64453;BME280;50813;52.654;6.766;2023-04-23T01:55:59;100698.0;;;9.16;100.0
64453;BME280;50813;52.654;6.766;2023-04-23T01:57:37;100697.0;;;9.08;100.0
64453;BME280;50813;52.654;6.766;2023-04-23T02:00:50;100700.0;;;9.0;100.0
64453;BME280;50813;52.654;6.766;2023-04-23T02:02:27;100703.0;;;9.11;100.0
64453;BME280;50813;52.654;6.766;2023-04-23T02:04:03;100705.0;;;9.07;100.0
64453;BME280;50813;52.654;6.766;2023-04-23T02:07:18;100705.0;;;9.13;100.0
64453;BME280;50813;52.654;6.766;2023-04-23T02:08:54;100697.0;;;9.21;100.0
64453;BME280;50813;52.654;6.766;2023-04-23T02:10:30;100691.0;;;9.14;100.0
64453;BME280;50813;52.654;6.766;2023-04-23T02:13:43;100689.0;;;9.06;100.0
64453;BME280;50813;52.654;6.766;2023-04-23T02:15:19;100691.0;;;9.17;100.0
64453;BME280;50813;52.654;6.766;2023-04-23T02:16:55;100693.0;;;9.08;100.0
64453;BME280;50813;52.654;6.766;2023-04-23T02:18:31;100688.0;;;9.03;100.0
64453;BME280;50813;52.654;6.766;2023-04-23T02:21:45;100689.0;;;9.14;100.0
64453;BME280;50813;52.654;6.766;2023-04-23T02:23:21;100685.0;;;9.1;100.0
64453;BME280;50813;52.654;6.766;2023-04-23T02:24:57;100685.0;;;9.0;100.0
64453;BME280;50813;52.654;6.766;2023-04-23T02:28:11;100689.0;;;8.92;100.0
64453;BME280;50813;52.654;6.766;2023-04-23T02:29:47;100693.0;;;8.93;100.0
64453;BME280;50813;52.654;6.766;2023-04-23T02:31:24;100697.0;;;8.92;100.0
64453;BME280;50813;52.654;6.766;2023-04-23T02:34:38;100693.0;;;8.91;100.0
64453;BME280;50813;52.654;6.766;2023-04-23T02:36:14;100690.0;;;8.88;100.0
64453;BME280;50813;52.654;6.766;2023-04-23T02:37:52;100691.0;;;8.78;100.0
64453;BME280;50813;52.654;6.766;2023-04-23T02:39:28;100690.0;;;8.91;100.0
64453;BME280;50813;52.654;6.766;2023-04-23T02:42:40;100687.0;;;8.78;100.0
64453;BME280;50813;52.654;6.766;2023-04-23T02:44:16;100683.0;;;8.77;100.0
64453;BME280;50813;52.654;6.766;2023-04-23T02:45:53;100684.0;;;8.76;100.0
64453;BME280;50813;52.654;6.766;2023-04-23T02:49:07;100686.0;;;8.65;100.0
64453;BME280;50813;52.654;6.766;2023-04-23T02:50:43;100681.0;;;8.5;100.0
64453;BME280;50813;52.654;6.766;2023-04-23T02:52:19;100683.0;;;8.64;100.0
64453;BME280;50813;52.654;6.766;2023-04-23T02:55:33;100677.0;;;8.48;100.0
64453;BME280;50813;52.654;6.766;2023-04-23T02:57:09;100680.0;;;8.41;100.0
64453;BME280;50813;52.654;6.766;2023-04-23T02:58:46;100680.0;;;8.5;100.0
64453;BME280;50813;52.654;6.766;2023-04-23T03:00:23;100682.0;;;8.55;100.0
64453;BME280;50813;52.654;6.766;2023-04-23T03:03:36;100674.0;;;8.44;100.0
64453;BME280;50813;52.654;6.766;2023-04-23T03:05:13;100681.0;;;8.48;100.0
64453;BME280;50813;52.654;6.766;2023-04-23T03:06:49;100680.0;;;8.48;100.0
64453;BME280;50813;52.654;6.766;2023-04-23T03:10:03;100682.0;;;8.49;100.0
64453;BME280;50813;52.654;6.766;2023-04-23T03:11:40;100678.0;;;8.45;100.0
64453;BME280;50813;52.654;6.766;2023-04-23T03:13:16;100680.0;;;8.4;100.0
64453;BME280;50813;52.654;6.766;2023-04-23T03:16:28;100680.0;;;8.58;100.0
64453;BME280;50813;52.654;6.766;2023-04-23T03:18:05;100671.0;;;8.48;100.0
64453;BME280;50813;52.654;6.766;2023-04-23T03:19:41;100674.0;;;8.61;100.0
64453;BME280;50813;52.654;6.766;2023-04-23T03:21:17;100669.0;;;8.64;100.0
64453;BME280;50813;52.654;6.766;2023-04-23T03:24:30;100668.0;;;8.56;100.0
64453;BME280;50813;52.654;6.766;2023-04-23T03:26:06;100669.0;;;8.64;100.0
64453;BME280;50813;52.654;6.766;2023-04-23T03:27:42;100663.0;;;8.64;100.0
64453;BME280;50813;52.654;6.766;2023-04-23T03:30:54;100660.0;;;8.61;100.0
64453;BME280;50813;52.654;6.766;2023-04-23T03:32:30;100658.0;;;8.56;100.0
64453;BME280;50813;52.654;6.766;2023-04-23T03:34:07;100655.0;;;8.65;100.0
64453;BME280;50813;52.654;6.766;2023-04-23T03:37:20;100655.0;;;8.73;100.0
64453;BME280;50813;52.654;6.766;2023-04-23T03:38:56;100655.0;;;8.63;100.0
64453;BME280;50813;52.654;6.766;2023-04-23T03:40:32;100647.0;;;8.71;100.0
64453;BME280;50813;52.654;6.766;2023-04-23T03:43:44;100650.0;;;8.68;100.0
64453;BME280;50813;52.654;6.766;2023-04-23T03:45:20;100651.0;;;8.72;100.0
64453;BME280;50813;52.654;6.766;2023-04-23T03:46:56;100649.0;;;8.74;100.0
64453;BME280;50813;52.654;6.766;2023-04-23T03:48:33;100647.0;;;8.8;100.0
64453;BME280;50813;52.654;6.766;2023-04-23T03:51:46;100644.0;;;8.8;100.0
64453;BME280;50813;52.654;6.766;2023-04-23T03:53:23;100641.0;;;8.58;100.0
64453;BME280;50813;52.654;6.766;2023-04-23T03:54:59;100645.0;;;8.73;100.0
64453;BME280;50813;52.654;6.766;2023-04-23T03:58:12;100642.0;;;8.73;100.0
64453;BME280;50813;52.654;6.766;2023-04-23T03:59:49;100641.0;;;8.72;100.0
64453;BME280;50813;52.654;6.766;2023-04-23T04:01:25;100638.0;;;8.61;100.0
64453;BME280;50813;52.654;6.766;2023-04-23T04:04:37;100633.0;;;8.64;100.0
64453;BME280;50813;52.654;6.766;2023-04-23T04:06:13;100631.0;;;8.65;100.0
64453;BME280;50813;52.654;6.766;2023-04-23T04:07:50;100635.0;;;8.67;100.0
64453;BME280;50813;52.654;6.766;2023-04-23T04:09:26;100636.0;;;8.68;100.0
64453;BME280;50813;52.654;6.766;2023-04-23T04:12:40;100628.0;;;8.67;100.0
64453;BME280;50813;52.654;6.766;2023-04-23T04:14:16;100634.0;;;8.66;100.0
64453;BME280;50813;52.654;6.766;2023-04-23T04:15:52;100631.0;;;8.73;100.0
64453;BME280;50813;52.654;6.766;2023-04-23T04:19:06;100626.0;;;8.72;100.0
64453;BME280;50813;52.654;6.766;2023-04-23T04:20:43;100623.0;;;8.71;100.0
64453;BME280;50813;52.654;6.766;2023-04-23T04:22:19;100622.0;;;8.84;100.0
64453;BME280;50813;52.654;6.766;2023-04-23T04:25:32;100631.0;;;8.91;100.0
64453;BME280;50813;52.654;6.766;2023-04-23T04:27:08;100633.0;;;8.89;100.0
64453;BME280;50813;52.654;6.766;2023-04-23T04:28:44;100630.0;;;8.78;100.0
64453;BME280;50813;52.654;6.766;2023-04-23T04:30:21;100630.0;;;8.89;100.0
64453;BME280;50813;52.654;6.766;2023-04-23T04:33:34;100630.0;;;8.92;100.0
64453;BME280;50813;52.654;6.766;2023-04-23T04:35:10;100628.0;;;8.82;100.0
64453;BME280;50813;52.654;6.766;2023-04-23T04:36:46;100623.0;;;8.99;100.0
64453;BME280;50813;52.654;6.766;2023-04-23T04:39:58;100622.0;;;9.06;100.0
64453;BME280;50813;52.654;6.766;2023-04-23T04:41:35;100622.0;;;9.1;100.0
64453;BME280;50813;52.654;6.766;2023-04-23T04:43:11;100626.0;;;9.17;100.0
64453;BME280;50813;52.654;6.766;2023-04-23T04:46:24;100624.0;;;9.13;100.0
64453;BME280;50813;52.654;6.766;2023-04-23T04:48:00;100623.0;;;9.14;100.0
64453;BME280;50813;52.654;6.766;2023-04-23T04:49:37;100624.0;;;9.22;100.0
64453;BME280;50813;52.654;6.766;2023-04-23T04:51:13;100626.0;;;9.08;100.0
64453;BME280;50813;52.654;6.766;2023-04-23T04:54:27;100621.0;;;9.23;100.0
64453;BME280;50813;52.654;6.766;2023-04-23T04:56:03;100621.0;;;9.19;100.0
64453;BME280;50813;52.654;6.766;2023-04-23T04:57:40;100619.0;;;9.24;100.0
64453;BME280;50813;52.654;6.766;2023-04-23T05:00:54;100622.0;;;9.26;100.0
64453;BME280;50813;52.654;6.766;2023-04-23T05:02:30;100620.0;;;9.32;100.0
64453;BME280;50813;52.654;6.766;2023-04-23T05:04:06;100614.0;;;9.33;100.0
64453;BME280;50813;52.654;6.766;2023-04-23T05:07:20;100614.0;;;9.46;100.0
64453;BME280;50813;52.654;6.766;2023-04-23T05:08:56;100613.0;;;9.4;100.0
64453;BME280;50813;52.654;6.766;2023-04-23T05:10:32;100621.0;;;9.57;100.0
64453;BME280;50813;52.654;6.766;2023-04-23T05:12:08;100622.0;;;9.52;100.0
64453;BME280;50813;52.654;6.766;2023-04-23T05:15:21;100617.0;;;9.58;100.0
64453;BME280;50813;52.654;6.766;2023-04-23T05:16:58;100618.0;;;9.53;100.0
64453;BME280;50813;52.654;6.766;2023-04-23T05:18:34;100614.0;;;9.66;100.0
64453;BME280;50813;52.654;6.766;2023-04-23T05:26:35;100619.0;;;9.5;100.0
64453;BME280;50813;52.654;6.766;2023-04-23T05:28:12;100612.0;;;9.48;100.0
64453;BME280;50813;52.654;6.766;2023-04-23T05:29:49;100606.0;;;9.56;100.0
64453;BME280;50813;52.654;6.766;2023-04-23T05:33:01;100616.0;;;9.5;100.0
64453;BME280;50813;52.654;6.766;2023-04-23T05:34:38;100609.0;;;9.56;100.0
64453;BME280;50813;52.654;6.766;2023-04-23T05:36:14;100616.0;;;9.53;100.0
64453;BME280;50813;52.654;6.766;2023-04-23T05:37:51;100614.0;;;9.48;100.0
64453;BME280;50813;52.654;6.766;2023-04-23T05:41:03;100606.0;;;9.61;100.0
64453;BME280;50813;52.654;6.766;2023-04-23T05:42:39;100602.0;;;9.65;100.0
64453;BME280;50813;52.654;6.766;2023-04-23T05:44:15;100597.0;;;9.65;100.0
64453;BME280;50813;52.654;6.766;2023-04-23T05:47:28;100603.0;;;9.75;100.0
64453;BME280;50813;52.654;6.766;2023-04-23T05:49:05;100603.0;;;9.72;100.0
64453;BME280;50813;52.654;6.766;2023-04-23T05:50:41;100607.0;;;9.72;100.0
64453;BME280;50813;52.654;6.766;2023-04-23T05:53:54;100603.0;;;9.58;100.0
64453;BME280;50813;52.654;6.766;2023-04-23T05:55:30;100608.0;;;9.67;100.0
64453;BME280;50813;52.654;6.766;2023-04-23T05:57:06;100609.0;;;9.75;100.0
64453;BME280;50813;52.654;6.766;2023-04-23T05:58:42;100605.0;;;9.99;100.0
64453;BME280;50813;52.654;6.766;2023-04-23T06:01:55;100597.0;;;10.13;100.0
64453;BME280;50813;52.654;6.766;2023-04-23T06:03:31;100598.0;;;10.13;100.0
64453;BME280;50813;52.654;6.766;2023-04-23T06:05:08;100605.0;;;10.09;100.0
64453;BME280;50813;52.654;6.766;2023-04-23T06:08:20;100602.0;;;10.14;100.0
64453;BME280;50813;52.654;6.766;2023-04-23T06:09:57;100606.0;;;10.32;100.0
64453;BME280;50813;52.654;6.766;2023-04-23T06:11:33;100611.0;;;10.4;100.0
64453;BME280;50813;52.654;6.766;2023-04-23T06:14:45;100602.0;;;10.48;100.0
64453;BME280;50813;52.654;6.766;2023-04-23T06:16:22;100606.0;;;10.62;100.0
64453;BME280;50813;52.654;6.766;2023-04-23T06:17:59;100605.0;;;10.6;100.0
64453;BME280;50813;52.654;6.766;2023-04-23T06:21:12;100601.0;;;10.67;100.0
64453;BME280;50813;52.654;6.766;2023-04-23T06:22:49;100598.0;;;10.72;100.0
64453;BME280;50813;52.654;6.766;2023-04-23T06:24:25;100597.0;;;10.65;100.0
64453;BME280;50813;52.654;6.766;2023-04-23T06:26:02;100600.0;;;10.66;100.0
64453;BME280;50813;52.654;6.766;2023-04-23T06:29:14;100595.0;;;10.77;100.0
64453;BME280;50813;52.654;6.766;2023-04-23T06:30:51;100596.0;;;10.78;100.0
64453;BME280;50813;52.654;6.766;2023-04-23T06:32:27;100589.0;;;10.99;100.0
64453;BME280;50813;52.654;6.766;2023-04-23T06:35:40;100592.0;;;11.02;100.0
64453;BME280;50813;52.654;6.766;2023-04-23T06:37:16;100581.0;;;11.03;100.0
64453;BME280;50813;52.654;6.766;2023-04-23T06:38:52;100589.0;;;11.17;100.0
64453;BME280;50813;52.654;6.766;2023-04-23T06:42:05;100592.0;;;11.17;100.0
64453;BME280;50813;52.654;6.766;2023-04-23T06:43:41;100583.0;;;11.36;100.0
64453;BME280;50813;52.654;6.766;2023-04-23T06:45:18;100587.0;;;11.44;100.0
64453;BME280;50813;52.654;6.766;2023-04-23T06:46:54;100582.0;;;11.52;100.0
64453;BME280;50813;52.654;6.766;2023-04-23T06:50:08;100584.0;;;11.45;100.0
64453;BME280;50813;52.654;6.766;2023-04-23T06:51:45;100580.0;;;11.6;100.0
64453;BME280;50813;52.654;6.766;2023-04-23T06:53:21;100580.0;;;11.56;100.0
64453;BME280;50813;52.654;6.766;2023-04-23T06:56:33;100578.0;;;11.65;100.0
64453;BME280;50813;52.654;6.766;2023-04-23T06:58:09;100583.0;;;11.64;100.0
64453;BME280;50813;52.654;6.766;2023-04-23T06:59:46;100572.0;;;11.74;100.0
64453;BME280;50813;52.654;6.766;2023-04-23T07:02:59;100586.0;;;11.86;100.0
64453;BME280;50813;52.654;6.766;2023-04-23T07:04:35;100580.0;;;11.8;100.0
64453;BME280;50813;52.654;6.766;2023-04-23T07:06:11;100585.0;;;11.75;100.0
64453;BME280;50813;52.654;6.766;2023-04-23T07:07:48;100577.0;;;11.61;100.0
64453;BME280;50813;52.654;6.766;2023-04-23T07:11:02;100569.0;;;11.48;100.0
64453;BME280;50813;52.654;6.766;2023-04-23T07:12:38;100568.0;;;11.54;100.0
64453;BME280;50813;52.654;6.766;2023-04-23T07:14:15;100566.0;;;11.61;100.0
64453;BME280;50813;52.654;6.766;2023-04-23T07:17:27;100556.0;;;11.6;100.0
64453;BME280;50813;52.654;6.766;2023-04-23T07:19:03;100556.0;;;11.54;100.0
64453;BME280;50813;52.654;6.766;2023-04-23T07:20:40;100557.0;;;11.5;100.0
64453;BME280;50813;52.654;6.766;2023-04-23T07:23:55;100550.0;;;11.47;100.0
64453;BME280;50813;52.654;6.766;2023-04-23T07:25:31;100551.0;;;11.4;100.0
64453;BME280;50813;52.654;6.766;2023-04-23T07:27:07;100542.0;;;11.41;100.0
64453;BME280;50813;52.654;6.766;2023-04-23T07:28:44;100542.0;;;11.54;100.0
64453;BME280;50813;52.654;6.766;2023-04-23T07:32:01;100537.0;;;11.42;100.0
64453;BME280;50813;52.654;6.766;2023-04-23T07:33:37;100542.0;;;11.5;100.0
64453;BME280;50813;52.654;6.766;2023-04-23T07:35:13;100537.0;;;11.6;100.0
64453;BME280;50813;52.654;6.766;2023-04-23T07:38:26;100543.0;;;11.62;100.0
64453;BME280;50813;52.654;6.766;2023-04-23T07:40:03;100544.0;;;11.63;100.0
64453;BME280;50813;52.654;6.766;2023-04-23T07:41:41;100543.0;;;11.63;100.0
64453;BME280;50813;52.654;6.766;2023-04-23T07:43:17;100550.0;;;11.58;100.0
64453;BME280;50813;52.654;6.766;2023-04-23T07:46:30;100555.0;;;11.44;100.0
64453;BME280;50813;52.654;6.766;2023-04-23T07:48:06;100552.0;;;11.43;100.0
64453;BME280;50813;52.654;6.766;2023-04-23T07:49:43;100553.0;;;11.39;100.0
64453;BME280;50813;52.654;6.766;2023-04-23T07:52:57;100553.0;;;11.51;100.0
64453;BME280;50813;52.654;6.766;2023-04-23T07:54:33;100551.0;;;11.65;100.0
64453;BME280;50813;52.654;6.766;2023-04-23T07:56:09;100551.0;;;11.89;100.0
64453;BME280;50813;52.654;6.766;2023-04-23T07:59:23;100542.0;;;11.99;100.0
64453;BME280;50813;52.654;6.766;2023-04-23T08:01:00;100545.0;;;12.02;100.0
64453;BME280;50813;52.654;6.766;2023-04-23T08:02:38;100543.0;;;12.22;100.0
64453;BME280;50813;52.654;6.766;2023-04-23T08:04:14;100539.0;;;12.38;100.0
64453;BME280;50813;52.654;6.766;2023-04-23T08:07:27;100536.0;;;12.5;100.0
64453;BME280;50813;52.654;6.766;2023-04-23T08:09:03;100528.0;;;12.79;100.0
64453;BME280;50813;52.654;6.766;2023-04-23T08:10:39;100524.0;;;12.98;100.0
64453;BME280;50813;52.654;6.766;2023-04-23T08:13:54;100523.0;;;13.13;100.0
64453;BME280;50813;52.654;6.766;2023-04-23T08:15:31;100519.0;;;13.2;100.0
64453;BME280;50813;52.654;6.766;2023-04-23T08:17:08;100522.0;;;13.1;100.0
64453;BME280;50813;52.654;6.766;2023-04-23T08:20:20;100522.0;;;13.23;100.0
64453;BME280;50813;52.654;6.766;2023-04-23T08:21:56;100520.0;;;13.39;100.0
64453;BME280;50813;52.654;6.766;2023-04-23T08:23:33;100518.0;;;13.48;100.0
64453;BME280;50813;52.654;6.766;2023-04-23T08:25:10;100518.0;;;13.61;100.0
64453;BME280;50813;52.654;6.766;2023-04-23T08:28:23;100524.0;;;13.69;100.0
64453;BME280;50813;52.654;6.766;2023-04-23T08:30:00;100528.0;;;13.51;99.95
64453;BME280;50813;52.654;6.766;2023-04-23T08:31:36;100533.0;;;13.88;100.0
64453;BME280;50813;52.654;6.766;2023-04-23T08:34:49;100524.0;;;13.76;100.0
64453;BME280;50813;52.654;6.766;2023-04-23T08:36:25;100525.0;;;13.83;100.0
64453;BME280;50813;52.654;6.766;2023-04-23T08:38:01;100526.0;;;14.16;100.0
64453;BME280;50813;52.654;6.766;2023-04-23T08:41:17;100522.0;;;14.17;100.0
64453;BME280;50813;52.654;6.766;2023-04-23T08:43:01;100527.0;;;14.43;100.0
64453;BME280;50813;52.654;6.766;2023-04-23T08:44:40;100522.0;;;14.58;100.0
64453;BME280;50813;52.654;6.766;2023-04-23T08:46:18;100522.0;;;14.65;98.5
64453;BME280;50813;52.654;6.766;2023-04-23T08:49:36;100518.0;;;14.66;98.74
64453;BME280;50813;52.654;6.766;2023-04-23T08:51:17;100523.0;;;14.83;98.13
64453;BME280;50813;52.654;6.766;2023-04-23T08:52:56;100524.0;;;14.96;98.21
64453;BME280;50813;52.654;6.766;2023-04-23T08:54:33;100516.0;;;15.04;96.49
64453;BME280;50813;52.654;6.766;2023-04-23T08:57:49;100520.0;;;15.02;97.99
64453;BME280;50813;52.654;6.766;2023-04-23T08:59:29;100515.0;;;15.07;93.57
64453;BME280;50813;52.654;6.766;2023-04-23T09:01:06;100522.0;;;15.1;96.45
64453;BME280;50813;52.654;6.766;2023-04-23T09:04:21;100524.0;;;15.27;92.09
64453;BME280;50813;52.654;6.766;2023-04-23T09:05:57;100530.0;;;15.53;94.04
64453;BME280;50813;52.654;6.766;2023-04-23T09:07:35;100533.0;;;15.45;90.98
64453;BME280;50813;52.654;6.766;2023-04-23T09:09:13;100530.0;;;15.33;91.06
64453;BME280;50813;52.654;6.766;2023-04-23T09:12:34;100532.0;;;15.39;91.61
64453;BME280;50813;52.654;6.766;2023-04-23T09:14:11;100530.0;;;15.31;89.61
64453;BME280;50813;52.654;6.766;2023-04-23T09:15:48;100527.0;;;15.29;89.87
64453;BME280;50813;52.654;6.766;2023-04-23T09:19:04;100526.0;;;15.5;91.38
64453;BME280;50813;52.654;6.766;2023-04-23T09:20:43;100525.0;;;15.6;90.82
64453;BME280;50813;52.654;6.766;2023-04-23T09:22:51;100525.0;;;15.81;88.07
64453;BME280;50813;52.654;6.766;2023-04-23T09:24:28;100518.0;;;15.88;87.73
64453;BME280;50813;52.654;6.766;2023-04-23T09:26:05;100521.0;;;16.16;87.98
64453;BME280;50813;52.654;6.766;2023-04-23T09:29:20;100520.0;;;16.12;86.53
64453;BME280;50813;52.654;6.766;2023-04-23T09:30:58;100521.0;;;15.95;82.47
64453;BME280;50813;52.654;6.766;2023-04-23T09:32:35;100519.0;;;16.25;85.36
64453;BME280;50813;52.654;6.766;2023-04-23T09:34:14;100519.0;;;16.03;82.37
64453;BME280;50813;52.654;6.766;2023-04-23T09:37:27;100510.0;;;15.87;83.04
64453;BME280;50813;52.654;6.766;2023-04-23T09:39:11;100517.0;;;15.87;87.42
64453;BME280;50813;52.654;6.766;2023-04-23T09:40:49;100515.0;;;16.07;85.97
64453;BME280;50813;52.654;6.766;2023-04-23T09:44:02;100510.0;;;16.06;80.02
64453;BME280;50813;52.654;6.766;2023-04-23T09:45:46;100506.0;;;15.9;82.25
64453;BME280;50813;52.654;6.766;2023-04-23T09:47:24;100502.0;;;15.93;79.92
64453;BME280;50813;52.654;6.766;2023-04-23T09:49:01;100505.0;;;16.16;85.38
64453;BME280;50813;52.654;6.766;2023-04-23T09:52:16;100505.0;;;16.31;82.99
64453;BME280;50813;52.654;6.766;2023-04-23T09:53:53;100505.0;;;16.32;81.81
64453;BME280;50813;52.654;6.766;2023-04-23T09:55:31;100499.0;;;16.36;80.52
64453;BME280;50813;52.654;6.766;2023-04-23T09:58:44;100490.0;;;16.28;80.02
64453;BME280;50813;52.654;6.766;2023-04-23T10:00:21;100493.0;;;16.11;80.14
64453;BME280;50813;52.654;6.766;2023-04-23T10:02:01;100488.0;;;16.45;80.22
64453;BME280;50813;52.654;6.766;2023-04-23T10:03:41;100486.0;;;16.87;79.97
64453;BME280;50813;52.654;6.766;2023-04-23T10:06:56;100494.0;;;16.73;78.5
64453;BME280;50813;52.654;6.766;2023-04-23T10:08:34;100487.0;;;16.7;76.88
64453;BME280;50813;52.654;6.766;2023-04-23T10:10:11;100492.0;;;16.65;72.94
64453;BME280;50813;52.654;6.766;2023-04-23T10:13:27;100490.0;;;16.72;77.38
64453;BME280;50813;52.654;6.766;2023-04-23T10:15:03;100481.0;;;17.02;76.41
64453;BME280;50813;52.654;6.766;2023-04-23T10:16:42;100474.0;;;17.2;75.81
64453;BME280;50813;52.654;6.766;2023-04-23T10:18:19;100474.0;;;17.31;74.08
64453;BME280;50813;52.654;6.766;2023-04-23T10:21:36;100480.0;;;17.36;78.19
64453;BME280;50813;52.654;6.766;2023-04-23T10:23:16;100482.0;;;17.52;75.3
64453;BME280;50813;52.654;6.766;2023-04-23T10:24:56;100478.0;;;17.41;70.89
64453;BME280;50813;52.654;6.766;2023-04-23T10:26:36;100482.0;;;17.46;71.77
64453;BME280;50813;52.654;6.766;2023-04-23T10:29:56;100480.0;;;17.5;72.74
64453;BME280;50813;52.654;6.766;2023-04-23T10:31:32;100475.0;;;17.45;73.0
64453;BME280;50813;52.654;6.766;2023-04-23T10:33:11;100480.0;;;17.81;73.59
64453;BME280;50813;52.654;6.766;2023-04-23T10:36:24;100480.0;;;17.55;69.88
64453;BME280;50813;52.654;6.766;2023-04-23T10:38:02;100480.0;;;17.73;71.72
64453;BME280;50813;52.654;6.766;2023-04-23T10:39:43;100480.0;;;17.89;68.19
64453;BME280;50813;52.654;6.766;2023-04-23T10:41:22;100480.0;;;18.2;70.56
64453;BME280;50813;52.654;6.766;2023-04-23T10:44:41;100473.0;;;18.05;67.14
64453;BME280;50813;52.654;6.766;2023-04-23T10:46:34;100472.0;;;18.02;70.08
64453;BME280;50813;52.654;6.766;2023-04-23T10:48:11;100470.0;;;17.93;71.27
64453;BME280;50813;52.654;6.766;2023-04-23T10:49:48;100465.0;;;17.75;67.61
64453;BME280;50813;52.654;6.766;2023-04-23T10:53:17;100467.0;;;18.16;68.13
64453;BME280;50813;52.654;6.766;2023-04-23T10:54:56;100463.0;;;18.28;66.05
64453;BME280;50813;52.654;6.766;2023-04-23T10:56:33;100474.0;;;18.07;65.23
64453;BME280;50813;52.654;6.766;2023-04-23T10:58:09;100467.0;;;17.81;63.46
64453;BME280;50813;52.654;6.766;2023-04-23T11:01:28;100465.0;;;17.84;63.23
64453;BME280;50813;52.654;6.766;2023-04-23T11:03:04;100464.0;;;18.07;65.5
64453;BME280;50813;52.654;6.766;2023-04-23T11:04:42;100461.0;;;18.03;62.2
64453;BME280;50813;52.654;6.766;2023-04-23T11:06:50;100457.0;;;18.27;63.65
64453;BME280;50813;52.654;6.766;2023-04-23T11:08:28;100465.0;;;18.36;64.34
64453;BME280;50813;52.654;6.766;2023-04-23T11:11:47;100467.0;;;18.32;60.99
64453;BME280;50813;52.654;6.766;2023-04-23T11:13:24;100461.0;;;18.27;62.4
64453;BME280;50813;52.654;6.766;2023-04-23T11:15:11;100460.0;;;18.12;60.75
64453;BME280;50813;52.654;6.766;2023-04-23T11:16:48;100458.0;;;18.18;61.88